»·PEaware :: PSV459 KSFO-KPDX

PSV459 :: KSFO-KPDX

FLIGHT INFORMATION

Flight Status: Arrived
Operator:
Power Set Virtual (website)
More flights by this operator :: More flights under this callsign
Pilot: Patrick L. (29141)
Aircraft: CESSNA 550 CITATION 2/S2/BRAVO
(C550)
More flights by this aircraft type
Origin: KSFO San Francisco Intl
United States
Destination: KPDX Portland Intl
United States
More flights between these airports :: More routes between these airports
Route: +TRUKN2 GRTFL MACHU MOXEE TMBRS2
File this flight plan on PilotEdge
Remarks:
Altitude:
(Current/Filed)
34,000ft
Speed:
(Current/Filed)
270kts
Departed: 01-Jul-20 12:23 PM
Arrived: 01-Jul-20 01:57 PM
Distance/Time
Traveled:
478nm/1:33
Distance/Time
To Go:
Arrived

Flight Plot

Page will automatically refresh every two minutes.


Map Options




Map Legend


Flown Route
Filed Route
Departure Airport
Arrival Airport
Navaid (VOR, NDB)
Fix

Horizontal Profiles

Position Reports

Time Latitude Longitude Heading Altitude Ground
Speed
01-Jul-20 11:58 37.627646 -122.383070 300 13ft 0kts
01-Jul-20 11:59 37.627646 -122.383070 300 13ft 0kts
01-Jul-20 12:00 37.627646 -122.383070 300 13ft 0kts
01-Jul-20 12:01 37.627646 -122.383070 300 13ft 0kts
01-Jul-20 12:02 37.627646 -122.383070 300 13ft 0kts
01-Jul-20 12:03 37.627646 -122.383070 300 13ft 0kts
01-Jul-20 12:04 37.627646 -122.383070 300 13ft 0kts
01-Jul-20 12:05 37.627646 -122.383070 300 13ft 0kts
01-Jul-20 12:06 37.627646 -122.383070 300 13ft 0kts
01-Jul-20 12:07 37.627646 -122.383070 300 13ft 0kts
01-Jul-20 12:08 37.627646 -122.383070 300 13ft 0kts
01-Jul-20 12:09 37.627646 -122.383070 300 13ft 0kts
01-Jul-20 12:10 37.627646 -122.383070 300 13ft 0kts
01-Jul-20 12:11 37.627646 -122.383070 300 13ft 0kts
01-Jul-20 12:12 37.627646 -122.383070 300 13ft 0kts
01-Jul-20 12:13 37.627646 -122.383070 300 13ft 0kts
01-Jul-20 12:14 37.627646 -122.383070 300 13ft 0kts
01-Jul-20 12:15 37.627646 -122.383070 300 13ft 0kts
01-Jul-20 12:16 37.627650 -122.383083 293 13ft 1kts
01-Jul-20 12:17 37.625916 -122.382870 136 18ft 13kts
01-Jul-20 12:18 37.623499 -122.377203 117 19ft 22kts
01-Jul-20 12:19 37.620781 -122.370711 118 9ft 30kts
01-Jul-20 12:20 37.616234 -122.359910 116 5ft 29kts
01-Jul-20 12:21 37.614508 -122.356744 189 5ft 0kts
01-Jul-20 12:22 37.615709 -122.362355 299 6ft 103kts
01-Jul-20 12:23 37.650554 -122.386832 42 1677ft 190kts
01-Jul-20 12:24 37.671126 -122.326554 63 3495ft 201kts
01-Jul-20 12:25 37.697271 -122.262016 60 5367ft 205kts
01-Jul-20 12:26 37.736282 -122.215462 3 7377ft 205kts
01-Jul-20 12:27 37.794031 -122.216411 357 9381ft 211kts
01-Jul-20 12:28 37.852099 -122.218133 357 11372ft 208kts
01-Jul-20 12:29 37.918932 -122.219975 357 13407ft 275kts
01-Jul-20 12:30 38.001644 -122.222168 357 15426ft 316kts
01-Jul-20 12:31 38.092023 -122.224522 356 17423ft 333kts
01-Jul-20 12:32 38.185472 -122.227026 356 19428ft 339kts
01-Jul-20 12:33 38.279330 -122.229499 355 21425ft 338kts
01-Jul-20 12:34 38.372709 -122.232457 353 23425ft 333kts
01-Jul-20 12:35 38.463553 -122.242592 351 25420ft 324kts
01-Jul-20 12:36 38.551769 -122.252125 351 27408ft 314kts
01-Jul-20 12:37 38.641252 -122.261650 351 27971ft 343kts
01-Jul-20 12:38 38.740286 -122.272027 351 27965ft 369kts
01-Jul-20 12:39 38.841452 -122.282478 351 27961ft 360kts
01-Jul-20 12:40 38.940450 -122.292852 350 27960ft 354kts
01-Jul-20 12:41 39.037707 -122.303109 348 27960ft 352kts
01-Jul-20 12:42 39.134739 -122.313380 349 27964ft 357kts
01-Jul-20 12:43 39.233932 -122.323899 349 27963ft 360kts
01-Jul-20 12:44 39.333688 -122.334501 349 27955ft 361kts
01-Jul-20 12:45 39.433949 -122.345177 349 27951ft 362kts
01-Jul-20 12:46 39.534384 -122.355908 349 27950ft 362kts
01-Jul-20 12:47 39.634331 -122.366620 349 27950ft 362kts
01-Jul-20 12:48 39.734394 -122.377377 349 27949ft 362kts
01-Jul-20 12:49 39.834715 -122.388197 349 27949ft 362kts
01-Jul-20 12:50 39.934837 -122.399016 349 27948ft 362kts
01-Jul-20 12:51 40.034890 -122.409885 349 27948ft 361kts
01-Jul-20 12:52 40.134333 -122.420687 349 27951ft 361kts
01-Jul-20 12:53 40.234606 -122.431620 349 27951ft 362kts
01-Jul-20 12:54 40.334667 -122.442531 349 27951ft 362kts
01-Jul-20 12:55 40.434870 -122.453570 349 27950ft 362kts
01-Jul-20 12:56 40.535214 -122.464607 349 27949ft 362kts
01-Jul-20 12:57 40.635362 -122.475663 349 27949ft 362kts
01-Jul-20 12:58 40.735731 -122.486777 349 27948ft 362kts
01-Jul-20 12:59 40.836014 -122.497916 349 27948ft 362kts
01-Jul-20 13:00 40.935964 -122.509110 349 27947ft 362kts
01-Jul-20 13:01 41.036108 -122.520253 349 27982ft 361kts
01-Jul-20 13:02 41.134273 -122.531202 349 28049ft 359kts
01-Jul-20 13:03 41.233450 -122.542373 349 28105ft 359kts
01-Jul-20 13:04 41.332574 -122.553610 349 28133ft 360kts
01-Jul-20 13:05 41.432933 -122.564941 349 27999ft 364kts
01-Jul-20 13:06 41.535390 -122.576588 350 27370ft 376kts
01-Jul-20 13:07 41.640804 -122.583342 352 26737ft 383kts
01-Jul-20 13:08 41.747451 -122.589866 351 26190ft 384kts
01-Jul-20 13:09 41.854360 -122.596848 352 25649ft 385kts
01-Jul-20 13:10 41.961362 -122.603890 352 25106ft 386kts
01-Jul-20 13:11 42.068506 -122.610957 352 24560ft 383kts
01-Jul-20 13:12 42.170733 -122.617582 352 24135ft 356kts
01-Jul-20 13:13 42.266392 -122.623921 351 24140ft 336kts
01-Jul-20 13:14 42.359426 -122.630262 351 24143ft 341kts
01-Jul-20 13:15 42.456005 -122.636786 352 24142ft 353kts
01-Jul-20 13:16 42.554750 -122.643365 352 24141ft 358kts
01-Jul-20 13:17 42.654329 -122.650034 351 24141ft 360kts
01-Jul-20 13:18 42.755082 -122.656821 351 24074ft 363kts
01-Jul-20 13:19 42.855878 -122.663625 351 24074ft 363kts
01-Jul-20 13:20 42.956547 -122.670440 350 24076ft 361kts
01-Jul-20 13:21 43.055721 -122.677152 349 24080ft 354kts
01-Jul-20 13:22 43.153494 -122.683856 348 24110ft 350kts
01-Jul-20 13:23 43.250159 -122.690458 348 24124ft 348kts
01-Jul-20 13:25 43.346927 -122.697180 348 24123ft 348kts
01-Jul-20 13:26 43.443487 -122.703863 348 24122ft 347kts
01-Jul-20 13:27 43.539660 -122.710494 349 24122ft 347kts
01-Jul-20 13:28 43.636073 -122.717106 348 24126ft 347kts
01-Jul-20 13:29 43.732438 -122.723872 348 24129ft 347kts
01-Jul-20 13:30 43.828511 -122.730598 348 24128ft 347kts
01-Jul-20 13:31 43.924821 -122.737340 348 24127ft 347kts
01-Jul-20 13:32 44.021285 -122.744118 348 24126ft 347kts
01-Jul-20 13:33 44.117706 -122.750920 348 24132ft 347kts
01-Jul-20 13:34 44.216422 -122.746426 355 23348ft 367kts
01-Jul-20 13:35 44.312432 -122.736956 355 21764ft 331kts
01-Jul-20 13:36 44.402105 -122.728232 356 20181ft 328kts
01-Jul-20 13:37 44.494935 -122.719071 357 18588ft 331kts
01-Jul-20 13:38 44.586386 -122.710001 357 16998ft 329kts
01-Jul-20 13:39 44.674155 -122.701109 358 15393ft 307kts
01-Jul-20 13:40 44.759839 -122.692570 358 13792ft 312kts
01-Jul-20 13:40 44.831590 -122.685305 359 12457ft 300kts
01-Jul-20 13:42 44.921403 -122.676183 359 10987ft 262kts
01-Jul-20 13:43 44.997368 -122.668641 359 10757ft 278kts
01-Jul-20 13:43 45.062066 -122.662041 0 9670ft 274kts
01-Jul-20 13:44 45.136466 -122.654471 0 8376ft 269kts
01-Jul-20 13:46 45.220443 -122.645860 1 7012ft 230kts
01-Jul-20 13:46 45.269150 -122.625601 27 6671ft 233kts
01-Jul-20 13:47 45.323385 -122.576525 28 5065ft 224kts
01-Jul-20 13:48 45.376022 -122.529016 28 5002ft 228kts
01-Jul-20 13:49 45.432005 -122.475999 33 4023ft 241kts
01-Jul-20 13:50 45.483885 -122.424467 30 2875ft 206kts
01-Jul-20 13:51 45.521656 -122.430841 296 2499ft 116kts
01-Jul-20 13:52 45.536466 -122.470162 292 2007ft 112kts
01-Jul-20 13:53 45.551351 -122.508943 294 1552ft 114kts
01-Jul-20 13:54 45.565291 -122.544736 297 785ft 92kts
01-Jul-20 13:55 45.577794 -122.576954 298 156ft 87kts
01-Jul-20 13:56 45.585931 -122.597801 299 18ft 22kts
01-Jul-20 13:57 45.586386 -122.601464 270 18ft 0kts
01-Jul-20 13:58 45.585675 -122.604056 357 18ft 2kts
01-Jul-20 13:59 45.585762 -122.604017 29 18ft 0kts
01-Jul-20 14:00 45.585762 -122.604017 29 18ft 0kts

Navigation Log

Ident Type
Flight plan parsing failed, navigation log unavailable